KENV/ENV METAR and TAF weather

Enter ICAO airport designator
Station Type Date Time Source
KENV METAR 2020/02/26 08:56 UTC NOAA

KENV 260856Z AUTO 00000KT 10SM CLR M06/M12 A3053 RMK AO2 SLP370 T10611117 56002 FZRANO


Station Type Date Time Source
KENV Decoded METAR 2020/02/26 08:56 UTC NOAA

Wendover / Air Force Auxillary Field, UT, United States (KENV) 40-44N 114-02W 1292M
Feb 26, 2020 - 03:56 AM EST / 2020.02.26 0856 UTC
Wind: Calm:0
Visibility: 10 mile(s):0
Sky conditions: clear
Temperature: 21.0 F (-6.1 C)
Dew Point: 10.9 F (-11.7 C)
Relative Humidity: 64%
Pressure (altimeter): 30.53 in. Hg (1033 hPa)
Pressure tendency: 0.01 inches (0.2 hPa) lower than three hours ago
ob: KENV 260856Z AUTO 00000KT 10SM CLR M06/M12 A3053 RMK AO2 SLP370 T10611117 56002 FZRANO
cycle: 9

Station Type Date Time Source
KENV TAF 2020/02/26 06:22 UTC NOAA

TAF KENV 260520Z 2606/2706 VRB04KT P6SM SCT150
FM261700 11006KT P6SM FEW080 SCT120
FM270300 32005KT P6SM FEW080 BKN120

Example: see airport list